createdAt,value
2022-10-13T00:01:12.957Z,10.73
2022-10-13T00:03:42.242Z,9.57
2022-10-13T00:06:11.089Z,8.90
2022-10-13T00:08:39.409Z,9.73
2022-10-13T00:11:13.218Z,10.00
2022-10-13T00:13:40.982Z,11.50
2022-10-13T00:16:10.401Z,9.70
2022-10-13T00:18:37.721Z,8.13
2022-10-13T00:21:15.127Z,9.43
2022-10-13T00:23:42.261Z,7.73
2022-10-13T00:26:13.391Z,8.00
2022-10-13T00:28:40.384Z,9.97
2022-10-13T00:31:29.026Z,8.17
2022-10-13T00:33:58.023Z,7.63
2022-10-13T00:36:25.134Z,7.17
2022-10-13T00:38:53.199Z,10.13
2022-10-13T00:41:21.568Z,8.47
2022-10-13T00:44:00.262Z,9.57
2022-10-13T00:46:34.785Z,7.40
2022-10-13T00:49:13.664Z,7.87
2022-10-13T00:51:50.122Z,9.50
2022-10-13T00:54:23.825Z,9.93
2022-10-13T00:56:53.325Z,8.17
2022-10-13T00:59:27.676Z,8.37
2022-10-13T01:01:57.723Z,8.07
2022-10-13T01:04:33.370Z,10.17
2022-10-13T01:07:01.797Z,10.37
2022-10-13T01:09:35.732Z,8.27
2022-10-13T01:12:49.083Z,7.43
2022-10-13T01:15:39.779Z,6.27
2022-10-13T01:18:48.190Z,9.40
2022-10-13T01:21:28.590Z,10.00
2022-10-13T01:24:21.547Z,7.97
2022-10-13T01:27:08.366Z,7.07
2022-10-13T01:30:19.826Z,6.80
2022-10-13T01:33:18.421Z,9.10
2022-10-13T01:36:09.523Z,10.23
2022-10-13T01:39:15.091Z,9.87
2022-10-13T01:41:49.825Z,8.97
2022-10-13T01:44:38.442Z,8.60
2022-10-13T01:47:08.848Z,8.50
2022-10-13T01:49:37.628Z,7.43
2022-10-13T01:52:15.127Z,6.97
2022-10-13T01:54:42.259Z,9.83
2022-10-13T01:57:42.700Z,10.47
2022-10-13T02:00:20.057Z,10.03
2022-10-13T02:02:56.669Z,9.23
2022-10-13T02:05:52.118Z,8.30
2022-10-13T02:08:46.006Z,10.83
2022-10-13T02:11:22.815Z,9.43
2022-10-13T02:14:09.529Z,7.67
2022-10-13T02:16:43.127Z,11.10
2022-10-13T02:19:15.359Z,11.97
2022-10-13T02:21:44.545Z,7.30
2022-10-13T02:24:12.595Z,7.20
2022-10-13T02:26:41.533Z,10.00
2022-10-13T02:29:14.579Z,11.27
2022-10-13T02:31:44.047Z,11.23
2022-10-13T02:34:12.411Z,10.67
2022-10-13T02:36:40.077Z,9.20
2022-10-13T02:39:11.749Z,10.70
2022-10-13T02:41:39.365Z,10.77
2022-10-13T02:44:07.230Z,9.27
2022-10-13T02:46:35.970Z,10.33
2022-10-13T02:49:02.906Z,7.20
2022-10-13T02:51:30.480Z,8.63
2022-10-13T02:53:57.318Z,7.07
2022-10-13T02:56:24.256Z,8.23
2022-10-13T02:58:51.733Z,7.17
2022-10-13T03:01:18.658Z,8.13
2022-10-13T03:03:46.441Z,9.83
2022-10-13T03:06:13.329Z,10.03
2022-10-13T03:08:40.234Z,11.80
2022-10-13T03:11:07.258Z,10.70
2022-10-13T03:13:34.118Z,8.97
2022-10-13T03:16:07.442Z,7.23
2022-10-13T03:18:35.023Z,8.07
2022-10-13T03:21:06.507Z,7.17
2022-10-13T03:23:34.235Z,8.70
2022-10-13T03:26:01.453Z,10.67
2022-10-13T03:28:28.793Z,9.57
2022-10-13T03:31:08.785Z,8.30
2022-10-13T03:33:35.714Z,10.33
2022-10-13T03:36:05.496Z,10.10
2022-10-13T03:38:34.702Z,7.27
2022-10-13T03:41:10.998Z,8.03
2022-10-13T03:43:38.951Z,9.43
2022-10-13T03:46:08.273Z,7.10
2022-10-13T03:48:36.317Z,10.70
2022-10-13T03:51:23.206Z,10.47
2022-10-13T03:53:52.111Z,10.17
2022-10-13T03:56:26.911Z,9.00
2022-10-13T03:58:57.083Z,7.40
2022-10-13T04:01:27.901Z,8.10
2022-10-13T04:03:56.576Z,9.87
2022-10-13T04:06:26.108Z,8.40
2022-10-13T04:08:53.911Z,7.03
2022-10-13T04:11:22.972Z,8.77
2022-10-13T04:13:57.507Z,9.10
2022-10-13T04:16:28.612Z,9.43
2022-10-13T04:19:06.456Z,7.90
2022-10-13T04:21:35.114Z,7.90
2022-10-13T04:24:04.219Z,8.03
2022-10-13T04:26:35.735Z,9.10
2022-10-13T04:29:11.276Z,7.77
2022-10-13T04:31:40.556Z,7.07
2022-10-13T04:34:07.774Z,10.07
2022-10-13T04:36:34.877Z,7.67
2022-10-13T04:39:01.719Z,7.43
2022-10-13T04:41:28.608Z,9.10
2022-10-13T04:43:55.559Z,8.00
2022-10-13T04:46:26.299Z,6.83
2022-10-13T04:48:55.502Z,9.13
2022-10-13T04:51:26.551Z,8.57
2022-10-13T04:53:58.623Z,8.67
2022-10-13T04:56:27.644Z,7.53
2022-10-13T04:58:54.645Z,6.20
2022-10-13T05:01:24.767Z,8.90
2022-10-13T05:03:59.612Z,8.20
2022-10-13T05:06:30.732Z,9.53
2022-10-13T05:08:58.205Z,9.03
2022-10-13T05:11:26.871Z,9.00
2022-10-13T05:13:55.308Z,10.30
2022-10-13T05:16:23.975Z,10.97
2022-10-13T05:18:52.896Z,11.63
2022-10-13T05:21:24.063Z,10.57
2022-10-13T05:23:55.428Z,8.37
2022-10-13T05:26:28.703Z,10.50
2022-10-13T05:29:00.689Z,8.40
2022-10-13T05:31:34.165Z,9.33
2022-10-13T05:34:01.568Z,10.90
2022-10-13T05:36:34.579Z,10.10
2022-10-13T05:39:06.184Z,11.43
2022-10-13T05:41:33.565Z,8.90
2022-10-13T05:44:08.525Z,9.60
2022-10-13T05:46:40.050Z,11.63
2022-10-13T05:49:07.069Z,8.57
2022-10-13T05:51:41.279Z,9.23
2022-10-13T05:54:21.461Z,12.03
2022-10-13T05:56:56.871Z,8.73
2022-10-13T05:59:28.833Z,12.30
2022-10-13T06:01:56.417Z,11.63
2022-10-13T06:04:49.014Z,8.93
2022-10-13T06:07:16.357Z,9.10
2022-10-13T06:09:44.032Z,10.33
2022-10-13T06:12:10.973Z,11.10
2022-10-13T06:14:38.071Z,8.43
2022-10-13T06:17:07.578Z,14.13
2022-10-13T06:19:34.447Z,13.73
2022-10-13T06:22:08.609Z,9.27
2022-10-13T06:24:35.552Z,10.93
2022-10-13T06:27:04.646Z,14.10
2022-10-13T06:29:33.598Z,20.47
2022-10-13T06:32:00.618Z,18.63
2022-10-13T06:34:27.585Z,19.00
2022-10-13T06:36:54.436Z,19.17
2022-10-13T06:39:21.353Z,15.57
2022-10-13T06:41:49.978Z,18.37
2022-10-13T06:44:16.896Z,15.60
2022-10-13T06:46:43.725Z,15.97
2022-10-13T06:49:10.572Z,17.77
2022-10-13T06:51:37.517Z,19.37
2022-10-13T06:54:04.487Z,18.40
2022-10-13T06:56:33.912Z,17.27
2022-10-13T06:59:05.539Z,15.23
2022-10-13T07:01:40.626Z,16.67
2022-10-13T07:04:12.684Z,18.07
2022-10-13T07:06:39.728Z,17.77
2022-10-13T07:09:08.456Z,16.47
2022-10-13T07:11:35.953Z,18.60
2022-10-13T07:14:02.980Z,17.63
2022-10-13T07:16:30.261Z,17.73
2022-10-13T07:18:57.105Z,16.70
2022-10-13T07:21:23.981Z,16.47
2022-10-13T07:23:50.808Z,17.07
2022-10-13T07:26:18.191Z,16.53
2022-10-13T07:28:45.355Z,17.13
2022-10-13T07:31:19.432Z,16.80
2022-10-13T07:33:49.563Z,17.80
2022-10-13T07:36:17.494Z,15.37
2022-10-13T07:38:44.833Z,17.57
2022-10-13T07:41:13.504Z,15.90
2022-10-13T07:43:40.757Z,15.90
2022-10-13T07:46:07.969Z,18.07
2022-10-13T07:48:35.622Z,16.90
2022-10-13T07:51:08.410Z,16.47
2022-10-13T07:53:35.601Z,16.00
2022-10-13T07:56:06.250Z,17.03
2022-10-13T07:58:36.533Z,20.83
2022-10-13T08:01:04.526Z,19.93
2022-10-13T08:03:32.831Z,20.40
2022-10-13T08:06:02.267Z,18.50
2022-10-13T08:08:30.030Z,16.10
2022-10-13T08:11:06.672Z,16.80
2022-10-13T08:13:35.601Z,17.43
2022-10-13T08:16:13.061Z,18.23
2022-10-13T08:18:39.989Z,17.13
2022-10-13T08:21:53.162Z,15.73
2022-10-13T08:24:00.526Z,16.73
2022-10-13T08:26:29.365Z,16.73
2022-10-13T08:29:20.602Z,16.60
2022-10-13T08:31:44.162Z,16.67
2022-10-13T08:34:11.888Z,15.27
2022-10-13T08:36:39.726Z,17.50
2022-10-13T08:39:07.092Z,15.43
2022-10-13T08:41:43.879Z,15.50
2022-10-13T08:47:40.165Z,14.63
2022-10-13T08:50:18.619Z,15.00
2022-10-13T08:52:53.526Z,13.23
2022-10-13T08:55:45.345Z,14.53
2022-10-13T08:58:27.012Z,15.03
2022-10-13T09:01:09.136Z,15.40
2022-10-13T09:04:08.179Z,14.90
2022-10-13T09:06:46.946Z,16.13
2022-10-13T09:09:16.484Z,15.20
2022-10-13T09:11:50.985Z,13.83
2022-10-13T09:14:32.598Z,13.77
2022-10-13T09:17:26.740Z,13.40
2022-10-13T09:20:05.456Z,14.70
2022-10-13T09:22:37.246Z,13.10
2022-10-13T09:25:07.226Z,13.73
2022-10-13T09:28:00.094Z,13.97
2022-10-13T09:30:38.854Z,13.57
2022-10-13T09:33:09.122Z,14.10
2022-10-13T09:36:00.318Z,13.67
2022-10-13T09:38:28.746Z,14.03
2022-10-13T09:41:10.023Z,13.07
2022-10-13T09:43:59.383Z,14.10
2022-10-13T09:46:37.823Z,13.23
2022-10-13T09:49:34.681Z,13.10
2022-10-13T09:52:18.702Z,13.47
2022-10-13T09:54:58.567Z,12.93
2022-10-13T09:57:48.148Z,12.53
2022-10-13T10:00:27.851Z,12.00
2022-10-13T10:03:19.151Z,13.10
2022-10-13T10:05:55.994Z,11.87
2022-10-13T10:09:02.644Z,12.00
2022-10-13T10:11:47.026Z,12.40
2022-10-13T10:14:22.100Z,11.63
2022-10-13T10:17:26.471Z,11.87
2022-10-13T10:20:49.176Z,12.30
2022-10-13T10:23:51.238Z,10.73
2022-10-13T10:26:43.919Z,11.83
2022-10-13T10:29:27.143Z,12.27
2022-10-13T10:32:38.513Z,11.97
2022-10-13T10:35:44.222Z,11.27
2022-10-13T10:38:13.997Z,11.33
2022-10-13T10:41:17.022Z,11.33
2022-10-13T10:44:17.513Z,10.60
2022-10-13T10:46:50.610Z,10.43
2022-10-13T10:49:28.862Z,9.53
2022-10-13T10:51:56.759Z,10.37
2022-10-13T10:54:45.070Z,9.53
2022-10-13T10:57:22.451Z,9.87
2022-10-13T11:00:15.117Z,9.80
2022-10-13T11:03:18.029Z,9.40
2022-10-13T11:06:01.270Z,9.70
2022-10-13T11:08:46.755Z,9.83
2022-10-13T11:11:26.617Z,9.97
2022-10-13T11:14:07.663Z,8.97
2022-10-13T11:16:40.738Z,9.67
2022-10-13T11:19:37.530Z,9.10
2022-10-13T11:22:04.290Z,8.80
2022-10-13T11:24:38.735Z,8.90
2022-10-13T11:27:11.392Z,8.90
2022-10-13T11:29:45.047Z,8.63
2022-10-13T11:32:41.829Z,8.37
2022-10-13T11:35:12.392Z,8.87
2022-10-13T11:38:17.733Z,8.77
2022-10-13T11:41:20.912Z,8.87
2022-10-13T11:44:08.292Z,9.80
2022-10-13T11:47:12.130Z,8.83
2022-10-13T11:50:16.653Z,8.30
2022-10-13T11:53:02.093Z,8.10
2022-10-13T11:55:56.009Z,7.77
2022-10-13T11:58:31.754Z,8.57
2022-10-13T12:01:11.813Z,8.30
2022-10-13T12:03:43.315Z,8.00
2022-10-13T12:06:33.600Z,7.93
2022-10-13T12:09:16.498Z,7.43
2022-10-13T12:11:45.243Z,7.60
2022-10-13T12:14:27.357Z,7.40
2022-10-13T12:19:32.138Z,7.73
2022-10-13T12:22:01.592Z,7.67
2022-10-13T12:24:30.778Z,7.60
2022-10-13T12:26:58.738Z,7.87
2022-10-13T12:29:30.235Z,8.10
2022-10-13T12:32:00.912Z,6.80
2022-10-13T12:34:36.262Z,7.57
2022-10-13T12:37:21.591Z,6.90
2022-10-13T12:39:49.284Z,7.50
2022-10-13T12:42:17.643Z,7.77
2022-10-13T12:44:45.652Z,7.93
2022-10-13T12:47:39.264Z,7.23
2022-10-13T12:50:25.083Z,7.03
2022-10-13T12:53:07.801Z,7.83
2022-10-13T12:55:45.511Z,6.70
2022-10-13T12:58:24.424Z,6.80
2022-10-13T13:01:08.163Z,8.03
2022-10-13T13:03:37.760Z,7.37
2022-10-13T13:06:25.848Z,6.97
2022-10-13T13:09:24.393Z,8.57
2022-10-13T13:12:10.733Z,7.40
2022-10-13T13:14:47.307Z,6.87
2022-10-13T13:20:31.623Z,8.53
2022-10-13T13:22:59.593Z,7.33
2022-10-13T13:25:27.341Z,6.93
2022-10-13T13:27:54.456Z,5.97
2022-10-13T13:30:23.740Z,6.50
2022-10-13T13:32:51.998Z,6.37
2022-10-13T13:35:19.173Z,6.93
2022-10-13T13:37:50.843Z,6.40
2022-10-13T13:40:24.934Z,6.20
2022-10-13T13:42:52.301Z,6.70
2022-10-13T13:45:23.875Z,7.07
2022-10-13T13:47:51.583Z,7.37
2022-10-13T13:50:26.509Z,7.03
2022-10-13T13:52:57.298Z,7.10
2022-10-13T13:55:25.037Z,7.00
2022-10-13T13:57:52.236Z,7.83
2022-10-13T14:00:21.107Z,6.83
2022-10-13T14:02:55.782Z,8.00
2022-10-13T14:05:23.554Z,9.03
2022-10-13T14:07:57.811Z,7.73
2022-10-13T14:10:26.432Z,7.03
2022-10-13T14:12:53.235Z,7.87
2022-10-13T14:15:21.045Z,6.80
2022-10-13T14:17:48.579Z,11.50
2022-10-13T14:20:15.543Z,9.67
2022-10-13T14:22:44.390Z,9.83
2022-10-13T14:25:11.967Z,8.90
2022-10-13T14:27:38.827Z,8.30
2022-10-13T14:30:09.406Z,7.60
2022-10-13T14:32:39.151Z,8.47
2022-10-13T14:35:07.141Z,8.23
2022-10-13T14:37:34.689Z,8.33
2022-10-13T14:40:01.876Z,8.20
2022-10-13T14:42:29.461Z,8.53
2022-10-13T14:44:56.294Z,7.87
2022-10-13T14:47:23.276Z,9.07
2022-10-13T14:49:50.246Z,7.90
2022-10-13T14:52:17.127Z,8.17
2022-10-13T14:54:45.181Z,8.37
2022-10-13T14:57:16.134Z,7.83
2022-10-13T14:59:43.691Z,7.67
2022-10-13T15:02:14.056Z,7.50
2022-10-13T15:04:52.021Z,7.93
2022-10-13T15:07:19.373Z,8.63
2022-10-13T15:09:52.923Z,7.83
2022-10-13T15:12:31.594Z,9.50
2022-10-13T15:14:58.439Z,8.77
2022-10-13T15:17:25.492Z,7.90
2022-10-13T15:19:52.303Z,8.50
2022-10-13T15:22:19.566Z,7.93
2022-10-13T15:24:46.574Z,8.53
2022-10-13T15:27:13.626Z,8.20
2022-10-13T15:29:40.644Z,8.27
2022-10-13T15:32:13.432Z,8.03
2022-10-13T15:34:41.380Z,8.50
2022-10-13T15:37:08.301Z,7.83
2022-10-13T15:39:35.144Z,7.93
2022-10-13T15:42:02.512Z,7.70
2022-10-13T15:44:51.098Z,7.83
2022-10-13T15:47:18.543Z,8.47
2022-10-13T15:49:45.367Z,7.33
2022-10-13T15:52:12.362Z,7.73
2022-10-13T15:54:39.224Z,8.00
2022-10-13T15:57:06.115Z,7.93
2022-10-13T15:59:33.966Z,8.03
2022-10-13T16:02:00.805Z,8.30
2022-10-13T16:04:27.616Z,8.07
2022-10-13T16:06:54.531Z,9.30
2022-10-13T16:09:21.342Z,10.90
2022-10-13T16:11:48.293Z,12.00
2022-10-13T16:14:15.125Z,10.33
2022-10-13T16:16:42.018Z,11.00
2022-10-13T16:19:08.892Z,9.47
2022-10-13T16:21:35.815Z,10.67
2022-10-13T16:24:05.371Z,9.57
2022-10-13T16:26:32.264Z,10.50
2022-10-13T16:28:59.348Z,10.50
2022-10-13T16:31:26.525Z,9.20
2022-10-13T16:33:54.139Z,9.60
2022-10-13T16:36:21.019Z,9.70
2022-10-13T16:38:52.786Z,8.97
2022-10-13T16:41:19.708Z,10.40
2022-10-13T16:43:48.175Z,9.67
2022-10-13T16:46:18.907Z,10.63
2022-10-13T16:48:46.723Z,10.00
2022-10-13T16:51:24.048Z,8.83
2022-10-13T16:53:54.306Z,9.67
2022-10-13T16:56:22.982Z,9.70
2022-10-13T16:58:56.116Z,8.70
2022-10-13T17:01:24.178Z,8.00
2022-10-13T17:03:52.162Z,8.37
2022-10-13T17:06:22.341Z,9.10
2022-10-13T17:08:56.981Z,8.67
2022-10-13T17:11:30.615Z,9.07
2022-10-13T17:13:59.527Z,9.07
2022-10-13T17:16:31.231Z,8.37
2022-10-13T17:18:58.184Z,9.10
2022-10-13T17:21:33.366Z,9.90
2022-10-13T17:24:00.314Z,9.53
2022-10-13T17:26:27.220Z,9.27
2022-10-13T17:28:54.709Z,9.13
2022-10-13T17:31:23.536Z,9.77
2022-10-13T17:33:51.310Z,12.33
2022-10-13T17:36:27.952Z,12.33
2022-10-13T17:38:56.728Z,11.37
2022-10-13T17:41:24.676Z,11.10
2022-10-13T17:43:52.554Z,10.83
2022-10-13T17:46:38.262Z,9.23
2022-10-13T17:49:09.768Z,9.90
2022-10-13T17:51:36.702Z,9.87
2022-10-13T17:54:04.148Z,9.23
2022-10-13T17:56:31.928Z,8.07
2022-10-13T17:59:01.732Z,9.73
2022-10-13T18:01:32.662Z,8.93
2022-10-13T18:04:04.468Z,9.33
2022-10-13T18:06:43.655Z,9.60
2022-10-13T18:09:19.360Z,8.37
2022-10-13T18:11:50.930Z,9.00
2022-10-13T18:14:24.417Z,8.97
2022-10-13T18:16:52.912Z,9.70
2022-10-13T18:19:21.329Z,9.27
2022-10-13T18:21:48.844Z,9.90
2022-10-13T18:24:15.813Z,10.57
2022-10-13T18:26:42.672Z,10.33
2022-10-13T18:29:11.421Z,10.47
2022-10-13T18:31:41.158Z,9.97
2022-10-13T18:34:12.597Z,9.83
2022-10-13T18:36:55.731Z,9.97
2022-10-13T18:39:27.806Z,10.10
2022-10-13T18:41:57.520Z,11.20
2022-10-13T18:44:34.244Z,9.70
2022-10-13T18:47:01.246Z,10.10
2022-10-13T18:49:30.932Z,10.37
2022-10-13T18:52:01.758Z,11.53
2022-10-13T18:54:30.097Z,9.97
2022-10-13T18:56:57.183Z,11.33
2022-10-13T18:59:24.415Z,11.47
2022-10-13T19:01:51.326Z,12.17
2022-10-13T19:04:18.294Z,9.50
2022-10-13T19:06:46.266Z,10.37
2022-10-13T19:09:17.183Z,11.40
2022-10-13T19:11:44.138Z,10.27
2022-10-13T19:14:14.207Z,10.70
2022-10-13T19:16:43.491Z,11.13
2022-10-13T19:19:11.534Z,9.53
2022-10-13T19:21:39.828Z,11.37
2022-10-13T19:24:09.733Z,9.83
2022-10-13T19:26:37.816Z,9.30
2022-10-13T19:29:12.517Z,10.93
2022-10-13T19:31:41.467Z,10.77
2022-10-13T19:34:10.691Z,10.73
2022-10-13T19:36:43.179Z,9.57
2022-10-13T19:39:18.525Z,9.87
2022-10-13T19:41:47.277Z,9.00
2022-10-13T19:44:16.542Z,7.50
2022-10-13T19:46:45.634Z,7.43
2022-10-13T19:49:16.205Z,7.83
2022-10-13T19:51:49.063Z,7.13
2022-10-13T19:54:18.029Z,6.53
2022-10-13T19:56:47.702Z,7.13
2022-10-13T19:59:17.341Z,7.17
2022-10-13T20:01:44.228Z,6.77
2022-10-13T20:04:15.806Z,6.93
2022-10-13T20:06:43.695Z,6.90
2022-10-13T20:09:10.623Z,6.67
2022-10-13T20:11:37.818Z,7.40
2022-10-13T20:14:04.782Z,7.53
2022-10-13T20:16:31.923Z,8.10
2022-10-13T20:19:00.933Z,8.10
2022-10-13T20:21:29.525Z,7.57
2022-10-13T20:23:57.807Z,8.47
2022-10-13T20:26:25.948Z,8.97
2022-10-13T20:28:54.700Z,8.67
2022-10-13T20:31:23.187Z,9.27
2022-10-13T20:33:58.425Z,9.40
2022-10-13T20:36:36.025Z,9.60
2022-10-13T20:39:12.018Z,9.00
2022-10-13T20:41:42.837Z,9.23
2022-10-13T20:44:09.968Z,9.53
2022-10-13T20:46:37.292Z,9.90
2022-10-13T20:49:11.579Z,9.10
2022-10-13T20:51:41.894Z,8.83
2022-10-13T20:54:11.215Z,8.80
2022-10-13T20:56:38.223Z,9.27
2022-10-13T20:59:12.057Z,9.00
2022-10-13T21:01:39.147Z,9.17
2022-10-13T21:04:06.484Z,9.50
2022-10-13T21:06:34.512Z,9.90
2022-10-13T21:09:01.771Z,10.20
2022-10-13T21:11:28.740Z,9.80
2022-10-13T21:13:55.624Z,10.37
2022-10-13T21:16:29.495Z,9.87
2022-10-13T21:18:57.663Z,9.77
2022-10-13T21:21:31.083Z,8.33
2022-10-13T21:24:05.081Z,10.03
2022-10-13T21:26:33.814Z,10.97
2022-10-13T21:29:02.507Z,9.67
2022-10-13T21:31:30.538Z,10.33
2022-10-13T21:33:57.771Z,10.13
2022-10-13T21:36:29.425Z,10.63
2022-10-13T21:39:05.208Z,11.27
2022-10-13T21:41:33.158Z,11.47
2022-10-13T21:44:00.151Z,10.93
2022-10-13T21:46:33.623Z,11.70
2022-10-13T21:49:04.765Z,11.33
2022-10-13T21:51:37.819Z,12.20
2022-10-13T21:54:10.721Z,12.13
2022-10-13T21:56:39.411Z,12.90
2022-10-13T21:59:07.507Z,13.37
2022-10-13T22:01:34.769Z,13.00
2022-10-13T22:04:11.451Z,12.90
2022-10-13T22:06:38.452Z,12.17
2022-10-13T22:09:06.475Z,10.43
2022-10-13T22:11:36.002Z,11.60
2022-10-13T22:14:10.871Z,11.23
2022-10-13T22:16:46.388Z,11.00
2022-10-13T22:19:15.881Z,10.33
2022-10-13T22:21:48.132Z,9.17
2022-10-13T22:24:19.607Z,7.60
2022-10-13T22:26:49.203Z,7.70
2022-10-13T22:29:20.131Z,6.53
2022-10-13T22:31:47.638Z,6.07
2022-10-13T22:34:16.279Z,7.30
2022-10-13T22:36:44.954Z,6.33
2022-10-13T22:39:12.779Z,6.93
2022-10-13T22:41:39.989Z,5.70
2022-10-13T22:44:06.915Z,6.70
2022-10-13T22:46:37.887Z,7.40
2022-10-13T22:49:06.686Z,6.37
2022-10-13T22:51:36.426Z,6.53
2022-10-13T22:54:04.586Z,5.67
2022-10-13T22:56:34.373Z,4.70
2022-10-13T22:59:08.009Z,6.53
2022-10-13T23:01:36.072Z,5.70
2022-10-13T23:04:03.540Z,5.93
2022-10-13T23:06:33.659Z,6.90
2022-10-13T23:09:06.447Z,6.40
2022-10-13T23:11:35.284Z,7.93
2022-10-13T23:14:05.922Z,5.90
2022-10-13T23:16:33.483Z,6.47
2022-10-13T23:19:00.290Z,7.17
2022-10-13T23:21:29.582Z,7.37
2022-10-13T23:24:05.915Z,7.60
2022-10-13T23:26:35.007Z,6.80
2022-10-13T23:29:03.756Z,6.43
2022-10-13T23:31:31.058Z,5.70
2022-10-13T23:33:58.666Z,7.27
2022-10-13T23:36:29.390Z,6.60
2022-10-13T23:39:03.882Z,6.00
2022-10-13T23:41:31.478Z,5.60
2022-10-13T23:43:58.459Z,6.20
2022-10-13T23:46:25.920Z,7.43
2022-10-13T23:48:52.935Z,7.03
2022-10-13T23:51:23.623Z,6.50
2022-10-13T23:53:51.512Z,6.53
2022-10-13T23:56:19.352Z,6.63
2022-10-13T23:58:46.413Z,5.73
